Nearby METAR Reports

 

EIDW - Dublin Airport, Ireland
Distance from station: NE 54mi, 87km
Updated: 21/07/2018 21:30
Mostly cloudy
Mostly cloudy
 Wind from WNW
Wind: WNW 7 km/h
Temperature: 19°C
Dew Point: 13°C
Humidity: 68%
Barometer: 1016 hPa
Clouds: Mostly cloudy
Visibility: 10 km
Cloud details: Few Clouds 762 m
Mostly cloudy 1067 m
2018/07/21 20:30 EIDW 212030Z 29004KT 260V320 9999 FEW025 BKN035 19/13 Q1016 NOSIG
EINN - Shannon Airport, Ireland
Distance from station: W 73mi, 117km
Updated: 21/07/2018 21:30
Mostly cloudy
Mostly cloudy
 Wind from W
Wind: W 13 km/h
Temperature: 16°C
Dew Point: 13°C
Humidity: 83%
Barometer: 1018 hPa
Clouds: Mostly cloudy
Visibility: 10 km
Cloud details: Mostly cloudy 396 m
2018/07/21 20:30 EINN 212030Z 27007KT 9999 BKN013 16/13 Q1018 NOSIG
 
EICK - Cork Arpt/Corcai, Ireland
Distance from station: SW 87mi, 141km
Updated: 21/07/2018 21:30
Few Clouds
Few Clouds
 Wind from NNW
Wind: NNW 15 km/h
Temperature: 20°C
Dew Point: 11°C
Humidity: 56%
Barometer: 1017 hPa
Clouds: Few Clouds
Visibility: 10 km
Cloud details: Few Clouds 792 m
2018/07/21 20:30 EICK 212030Z 33008KT 9999 FEW026 20/11 Q1017 NOSIG
EIKN - Connaught Apt, Ireland
Distance from station: NW 100mi, 161km
Updated: 21/07/2018 19:00
NOT Current
Overcast
Overcast
 Wind from WSW
Wind: WSW 17 km/h
Temperature: 15°C
Dew Point: 14°C
Humidity: 94%
Barometer: 1016 hPa
Clouds: Overcast
Visibility: 10 km
Cloud details: Few Clouds 274 m
Overcast 366 m
2018/07/21 18:00 EIKN 211800Z 25009KT 9999 FEW009 OVC012 15/14 Q1016 NOSIG
 
EGOV - Valley Raf, United Kingdom
Distance from station: ENE 114mi, 183km
Updated: 21/07/2018 20:50
Overcast
Overcast
 Wind from WSW
Wind: WSW 11 km/h
Temperature: 16°C
Dew Point: 12°C
Humidity: 77%
Barometer: 1016 hPa
Clouds: Overcast
Visibility: 10 km
Cloud details: Overcast 1829 m
2018/07/21 19:50 EGOV 211950Z AUTO 25006KT 9999 OVC060/// 16/12 Q1016
EGAA - Belfast/Aldergro, United Kingdom
Distance from station: NNE 130mi, 209km
Updated: 21/07/2018 21:20
Mostly cloudy
Mostly cloudy
 Wind from WSW
Wind: WSW 17 km/h
Temperature: 17°C
Dew Point: 14°C
Humidity: 83%
Barometer: 1015 hPa
Clouds: Mostly cloudy
Visibility: 10 km
Cloud details: Few Clouds 518 m
Mostly cloudy 1036 m
2018/07/21 20:20 EGAA 212020Z 25009KT 9999 FEW017 BKN034 17/14 Q1015
 
EGAC - Belfast Harbour, United Kingdom
Distance from station: NNE 134mi, 215km
Updated: 21/07/2018 21:20
Mostly cloudy
Mostly cloudy
 Wind from SSW
Wind: SSW 11 km/h
Temperature: 17°C
Dew Point: 14°C
Humidity: 83%
Barometer: 1015 hPa
Clouds: Mostly cloudy
Visibility: 10 km
Cloud details: Mostly cloudy 640 m
Mostly cloudy 853 m
2018/07/21 20:20 EGAC 212020Z AUTO 21006KT 9999 BKN021/// BKN028/// 17/14 Q1015
EGNS - Isle Of Man/Rona, United Kingdom
Distance from station: NE 135mi, 218km
Updated: 21/07/2018 21:20
Mostly cloudy
Mostly cloudy
 Wind from WSW
Wind: WSW 11 km/h
Temperature: 15°C
Dew Point: 13°C
Humidity: 88%
Barometer: 1015 hPa
Clouds: Mostly cloudy
Visibility: 10 km
Cloud details: Few Clouds 335 m
Mostly cloudy 1128 m
2018/07/21 20:20 EGNS 212020Z 25006KT 220V300 9999 FEW011 BKN037 15/13 Q1015